logo
App data

Warhammer 40,000: Dawn of War II Chaos Rising

In Dawn of War II: Chaos Rising you will take command of the Blood Ravens and defend the sector against the Chaos Space Marines of the Black Legion. Purge the Chaos filth and hold the chapter together as traitorous forces work from within to try bring down the Blood Ravens.
Store | Hub | SteamDB | Site
Developer: Relic Entertainment, Feral Interactive (Mac/Linux) Publisher: SEGA, Feral Interactive (Mac/Linux)
Genre: Strategy
Languages: English, French, German, Italian, Spanish - Spain
Tags: Strategy (153), Warhammer 40K (144), RTS (129), Sci-fi (70), Multiplayer (55), Games Workshop (44), Tactical (39), Real-Time (30), Co-op (29), RPG (29), Singleplayer (25), Action (18), Gore (8), Great Soundtrack (7)
Category: Single-player, Multi-player, Co-op, Steam Cloud
Release date: Mar 10, 2010
Price: $19.99
Old userscore: 90% Metascore: 85%
Owners: 1,000,000 .. 2,000,000
Followers: 0
Peak concurrent players yesterday: 98
YouTube stats: 442 views and 2 comments for videos uploaded last week, 0 new videos uploaded yesterday.
Playtime total: 03:14 (average) 05:00 (median)

Steam Spy is still in beta, so expect major bugs.

Owners data:

Access restricted.

This feature is only available to users with special access rights. Sorry.

If you want to proceed, you need to register or log in first and then back Steam Spy on Patreon. Look for Indie or Pro pledge.

Don't forget to use the same email as on Steam Spy!

Audience in 2 weeks:

Access restricted.

This feature is only available to users with special access rights. Sorry.

If you want to proceed, you need to register or log in first and then back Steam Spy on Patreon. Look for Indie or Pro pledge.

Don't forget to use the same email as on Steam Spy!

Peak daily concurrent players:

CCU data courtesy of SteamDB. Used with permission.

Hourly concurrent players:

YouTube:

The views data is based on top 50 videos uploaded last week. Actual number of views might be more than the number shown.

The displayed number of videos uploaded yesterday is limited to 50, so if there were more videos uploaded, the number will still show 50.

If the game has commonly used word as its name (like "FEAR" or "Volume") its number of Youtube views might be wrong.

Games similar to this one:

# Game Release date
Price
Score rank
(Userscore / Metascore)
Owners
Players
Playtime (Median)
1 Sid Meier's Civilization IV Oct 25, 2005 $19.99N/A (N/A/94%)1,000,000 .. 2,000,0000%00:00 (00:00)
2 Solarix Apr 30, 2015 $1.99N/A (N/A)100,000 .. 200,0000%00:00 (00:00)
3 Ballistic Protection Oct 12, 2016 $0.49N/A (N/A)200,000 .. 500,0000%00:00 (00:00)
4 Killer is Dead - Nightmare Edition May 23, 2014 $19.99N/A (N/A)1,000,000 .. 2,000,0000%00:00 (00:00)
5 Strike Vector EX Jul 19, 2017 $11.99N/A (N/A)50,000 .. 100,0000%00:00 (00:00)
6 Mad Max Sep 1, 2015 $19.99N/A (N/A/73%)2,000,000 .. 5,000,0004.17%00:37 (00:24)
7 Cyber City 2157: The Visual Novel May 4, 2016 $5.99N/A (N/A)100,000 .. 200,0000%00:00 (00:00)
8 Resident Evil Revelations / Biohazard Revelations May 20, 2013 $29.99N/A (N/A/77%)500,000 .. 1,000,0000%00:00 (00:00)
9 CLASH Nov 15, 2016 FreeN/A (N/A)100,000 .. 200,0000%00:00 (00:00)
10 Tomb Raider Mar 4, 2013 $19.99N/A (N/A/86%)5,000,000 .. 10,000,0000.81%00:03 (00:01)
11 Darksiders II Deathinitive Edition Nov 5, 2015 $29.99N/A (N/A)1,000,000 .. 2,000,0000%00:00 (00:00)
12 Homefront Mar 14, 2011 $19.99N/A (N/A/70%)2,000,000 .. 5,000,0001.02%00:21 (00:07)
13 Savage Resurrection Aug 18, 2016 N/AN/A (N/A)50,000 .. 100,0000%00:00 (00:00)
14 Sniper: Ghost Warrior Jun 24, 2010 $1.59N/A (N/A/55%)1,000,000 .. 2,000,0003.7%02:57 (00:59)
15 Gems of War - Puzzle RPG Nov 20, 2014 FreeN/A (N/A)200,000 .. 500,0000%00:00 (00:00)
16 Star Trek Online Feb 2, 2010 FreeN/A (N/A/66%)1,000,000 .. 2,000,0000%00:00 (00:00)
17 Heroes of Might & Magic III - HD Edition Jan 29, 2015 $14.99N/A (N/A/65%)500,000 .. 1,000,0008.33%10:07 (03:22)
18 Fight or Die Jan 6, 2017 $0.51N/A (N/A)50,000 .. 100,0000%00:00 (00:00)
19 Offworld Trading Company - Free Multiplayer Apr 28, 2016 FreeN/A (N/A/78%)500,000 .. 1,000,0000%00:00 (00:00)
20 Carmageddon: Max Damage Oct 27, 2016 $16.99N/A (N/A)200,000 .. 500,0000%00:00 (00:00)
21 Tropico 5 May 23, 2014 $19.99N/A (N/A/75%)1,000,000 .. 2,000,0006.9%03:42 (02:28)
22 PixBit May 21, 2016 $0.51N/A (N/A)200,000 .. 500,0000%00:00 (00:00)
23 Age of Wonders III Mar 31, 2014 $29.99N/A (N/A/80%)500,000 .. 1,000,0000%00:00 (00:00)
24 Lost Castle Aug 31, 2016 $9.99N/A (N/A)500,000 .. 1,000,0002.78%13:48 (04:36)
25 Deponia Aug 6, 2012 $9.99N/A (N/A/74%)500,000 .. 1,000,0000%00:00 (00:00)
26 Heaven Island - VR MMO Dec 1, 2015 $0.99N/A (N/A)500,000 .. 1,000,0000%00:00 (00:00)
27 Alan Wake Feb 16, 2012 $14.99N/A (N/A/83%)2,000,000 .. 5,000,0000%00:00 (00:00)
28 Dead Island: Riptide Definitive Edition May 31, 2016 $19.99N/A (N/A)200,000 .. 500,0000%00:00 (00:00)
29 Devil May Cry 4 Jul 8, 2008 $19.99N/A (N/A/78%)200,000 .. 500,0000%00:00 (00:00)
30 Cultures - Northland Mar 26, 2015 $0.79N/A (N/A)100,000 .. 200,0000%00:00 (00:00)
31 Crysis Warhead Sep 17, 2008 $19.99N/A (N/A/84%)500,000 .. 1,000,0000%00:00 (00:00)
32 Trine 3: The Artifacts of Power Aug 20, 2015 $21.99N/A (N/A)500,000 .. 1,000,0000%00:00 (00:00)
33 GRUZCHIK Mar 10, 2017 $0.49N/A (N/A)50,000 .. 100,0000%00:00 (00:00)
34 Sid Meier's Civilization III Complete Oct 30, 2001 $4.99N/A (N/A/90%)2,000,000 .. 5,000,0000%00:00 (00:00)
35 Rise of Nations: Extended Edition Jun 12, 2014 $19.99N/A (N/A/89%)500,000 .. 1,000,0000%00:00 (00:00)
36 Slingshot people Oct 20, 2016 $0.99N/A (N/A)200,000 .. 500,0000%00:00 (00:00)
37 Dungeons 2 Apr 24, 2015 $19.99N/A (N/A/70%)1,000,000 .. 2,000,0000%00:00 (00:00)
38 Yomawari: Night Alone / 夜廻 Oct 25, 2016 $19.99N/A (N/A)50,000 .. 100,0000%00:00 (00:00)
39 Warhammer: End Times - Vermintide Oct 23, 2015 $29.99N/A (N/A/79%)1,000,000 .. 2,000,0000%00:00 (00:00)
40 Halo Wars: Definitive Edition Apr 20, 2017 $19.99N/A (N/A)200,000 .. 500,0000%00:00 (00:00)
41 Wargame: Airland Battle May 29, 2013 $19.99N/A (N/A/80%)100,000 .. 200,0000%00:00 (00:00)
42 RWBY: Grimm Eclipse Jul 5, 2016 $19.99N/A (N/A)200,000 .. 500,0000%00:00 (00:00)
43 Max Payne 3 May 31, 2012 $19.99N/A (N/A/87%)1,000,000 .. 2,000,0005.71%01:29 (00:59)
44 Azure Striker Gunvolt Aug 28, 2015 $14.99N/A (N/A)20,000 .. 50,0000%00:00 (00:00)
45 Broken Sword: Director's Cut Sep 2, 2010 $5.99N/A (N/A)200,000 .. 500,0000%00:00 (00:00)
46 Kingdom: Classic Oct 21, 2015 $4.99N/A (N/A/74%)2,000,000 .. 5,000,0000%00:00 (00:00)
47 Batman: Arkham Asylum Game of the Year Edition Mar 26, 2010 $19.99N/A (N/A/91%)2,000,000 .. 5,000,0000%00:00 (00:00)
48 Cossacks 3 Sep 20, 2016 $19.99N/A (N/A)500,000 .. 1,000,00020%00:09 (00:03)
49 Prototype Jun 10, 2009 $19.99N/A (N/A/79%)500,000 .. 1,000,0000%00:00 (00:00)
50 GET EVEN Jun 20, 2017 $29.99N/A (N/A/75%)20,000 .. 50,0000%00:00 (00:00)
51 State of Anarchy: Master of Mayhem Mar 31, 2017 $2.99N/A (N/A)200,000 .. 500,0000%00:00 (00:00)
52 Evolve Stage 2 Feb 10, 2015 N/AN/A (N/A/77%)5,000,000 .. 10,000,0000%00:00 (00:00)
53 Neon Space 2 Jul 26, 2016 $4.99N/A (N/A)100,000 .. 200,00014.29%01:54 (00:57)
54 Plague Inc: Evolved Feb 18, 2016 $14.99N/A (N/A)1,000,000 .. 2,000,0005.26%00:43 (00:41)
55 Z.I.O.N. May 7, 2016 $0.49N/A (N/A)200,000 .. 500,0000%00:00 (00:00)
56 Galactic Civilizations III May 14, 2015 $29.99N/A (N/A/81%)500,000 .. 1,000,0000%00:00 (00:00)
57 Rock 'N' Roll Defense Aug 10, 2016 $0.99N/A (N/A)200,000 .. 500,0000%00:00 (00:00)
58 Total War: ROME II - Emperor Edition Sep 2, 2013 $59.95N/A (N/A/76%)2,000,000 .. 5,000,0003.85%14:57 (04:59)
59 VERGE:Lost chapter Oct 1, 2015 $4.99N/A (N/A)100,000 .. 200,0008.33%04:53 (01:37)
60 Crysis 2 - Maximum Edition Mar 22, 2011 $29.99N/A (N/A)2,000,000 .. 5,000,0000%00:00 (00:00)
61 Firewatch Feb 9, 2016 $19.99N/A (N/A/81%)500,000 .. 1,000,0000%00:00 (00:00)
62 Syberia II Mar 30, 2004 $12.99N/A (N/A/80%)500,000 .. 1,000,0000%00:00 (00:00)
63 The Descendant Mar 24, 2016 $14.99N/A (N/A/59%)200,000 .. 500,0001.54%02:03 (01:20)
64 Command & Conquer: Red Alert 3 Oct 28, 2008 $19.99N/A (N/A/82%)500,000 .. 1,000,0000%00:00 (00:00)
65 SteamWorld Heist Jun 7, 2016 $14.99N/A (N/A/81%)200,000 .. 500,0000%00:00 (00:00)
66 Shadows 2: Perfidia Mar 24, 2017 $9.99N/A (N/A)50,000 .. 100,0000%00:00 (00:00)
67 Warhammer 40,000: Dawn of War - Game of the Year Edition Jan 1, 2006 $12.99N/A (N/A/86%)1,000,000 .. 2,000,0000%00:00 (00:00)
68 Mini Metro Nov 6, 2015 $9.99N/A (N/A/77%)500,000 .. 1,000,00011.11%02:43 (01:42)
69 Cavern Escape Feb 20, 2017 $3.99N/A (N/A)100,000 .. 200,0000%00:00 (00:00)
70 Blockstorm May 21, 2015 $4.99N/A (N/A)500,000 .. 1,000,0000%00:00 (00:00)
71 Mansions of Madness Aug 1, 2016 FreeN/A (N/A)100,000 .. 200,0000%00:00 (00:00)
72 Dreamfall Chapters Jul 21, 2017 $24.99N/A (N/A/71%)200,000 .. 500,00012.5%00:01 (00:00)
73 Bayonetta Apr 11, 2017 $19.99N/A (N/A/90%)500,000 .. 1,000,0005%00:52 (00:17)
74 Homefront: The Revolution May 17, 2016 $29.99N/A (N/A/54%)500,000 .. 1,000,0000%00:00 (00:00)
75 River City Ransom: Underground Feb 27, 2017 $19.99N/A (N/A)50,000 .. 100,0000%00:00 (00:00)
76 Infested Planet Mar 6, 2014 $14.99N/A (N/A/75%)200,000 .. 500,0000%00:00 (00:00)
77 DESYNC Feb 28, 2017 $14.99N/A (N/A/69%)20,000 .. 50,0000%00:00 (00:00)
78 Blood Bowl - Legendary Edition Oct 28, 2010 $9.99N/A (N/A/73%)200,000 .. 500,0000%00:00 (00:00)
79 Halcyon 6: Starbase Commander Sep 8, 2016 $14.99N/A (N/A/71%)50,000 .. 100,0000%00:00 (00:00)
80 RIFT Oct 24, 2013 FreeN/A (N/A/84%)2,000,000 .. 5,000,0000%00:00 (00:00)
81 Town of Salem Dec 15, 2014 $4.99N/A (N/A)500,000 .. 1,000,0000%00:00 (00:00)
82 Call of Duty: Modern Warfare 2 Nov 12, 2009 $19.99N/A (N/A/86%)5,000,000 .. 10,000,0000%00:00 (00:00)
83 Saints Row: Gat out of Hell Jan 20, 2015 $14.99N/A (N/A/66%)500,000 .. 1,000,0000%00:00 (00:00)
84 Lost Base Escape Jan 23, 2017 $0.49N/A (N/A)50,000 .. 100,0000%00:00 (00:00)
85 Brigador: Up-Armored Edition Jun 2, 2016 $19.99N/A (N/A/70%)200,000 .. 500,0000%00:00 (00:00)
86 Forgotten Heroes Aug 12, 2016 $0.49N/A (N/A)50,000 .. 100,0000%00:00 (00:00)
87 Unholy Heights Aug 16, 2013 $3.99N/A (N/A)100,000 .. 200,0000%00:00 (00:00)
88 Home Behind Jun 2, 2016 $5.99N/A (N/A)200,000 .. 500,0000%00:00 (00:00)
89 Full Throttle Remastered Apr 18, 2017 $14.99N/A (N/A/77%)100,000 .. 200,0000%00:00 (00:00)
90 This Is the Police Aug 2, 2016 $14.99N/A (N/A)500,000 .. 1,000,0000%00:00 (00:00)
91 PlanetSide 2 Nov 20, 2012 FreeN/A (N/A/84%)5,000,000 .. 10,000,0000.72%00:41 (00:13)
92 BioShock 2 Remastered Sep 15, 2016 $19.99N/A (N/A)2,000,000 .. 5,000,0000%00:00 (00:00)
93 Prototype 2 Jul 24, 2012 $39.99N/A (N/A/76%)500,000 .. 1,000,0000%00:00 (00:00)
94 NECROPOLIS: BRUTAL EDITION Jul 2016 $29.99N/A (N/A)200,000 .. 500,0000%00:00 (00:00)
95 Stronghold 3 Gold May 25, 2012 $29.99N/A (N/A)500,000 .. 1,000,0000%00:00 (00:00)
96 The Silent Age May 29, 2015 $0.99N/A (N/A)200,000 .. 500,0000%00:00 (00:00)
97 Resident Evil 5/ Biohazard 5 Sep 15, 2009 $19.99N/A (N/A/86%)1,000,000 .. 2,000,0000%00:00 (00:00)
98 Gurumin: A Monstrous Adventure Mar 30, 2015 $3.49N/A (N/A)50,000 .. 100,0000%00:00 (00:00)
99 Battle Bruise Apr 22, 2017 $0.99N/A (N/A)20,000 .. 50,0000%00:00 (00:00)
100 Warhammer 40,000: Dawn of War - Dark Crusade Oct 9, 2006 $12.99N/A (N/A/87%)500,000 .. 1,000,0000%00:00 (00:00)
101 Sid Meier’s Civilization VI Oct 20, 2016 $59.99N/A (N/A/88%)2,000,000 .. 5,000,0006.02%06:13 (06:29)
102 The Butterfly Sign Dec 13, 2016 $4.99N/A (N/A)200,000 .. 500,0000%00:00 (00:00)
103 One Finger Death Punch Mar 3, 2014 $4.99N/A (N/A)500,000 .. 1,000,0004.17%01:16 (00:25)
104 Radical Spectrum: Volume 1 Jul 8, 2016 $0.99N/A (N/A)50,000 .. 100,0000%00:00 (00:00)
105 Bionic Dues Oct 8, 2013 $9.99N/A (N/A/71%)200,000 .. 500,0000%00:00 (00:00)
106 Iron Impact May 27, 2016 $0.51N/A (N/A)100,000 .. 200,0000%00:00 (00:00)
107 Ace of Spades: Battle Builder N/AN/A (N/A)1,000,000 .. 2,000,0000%00:00 (00:00)
108 Project Pulsation Dec 15, 2015 $0.49N/A (N/A)200,000 .. 500,0000%00:00 (00:00)
109 Sins of a Solar Empire: Rebellion Jun 12, 2012 $39.99N/A (N/A/82%)2,000,000 .. 5,000,0000.5%06:19 (02:06)
110 Rise of the Tomb Raider Feb 9, 2016 $59.99N/A (N/A/86%)2,000,000 .. 5,000,0003.9%02:10 (01:28)
111 Wargame: European Escalation Feb 22, 2012 $9.99N/A (N/A/81%)500,000 .. 1,000,0000%00:00 (00:00)
112 Tap Heroes Jun 5, 2015 $2.99N/A (N/A)200,000 .. 500,0000%00:00 (00:00)
113 Supreme Commander 2 Mar 1, 2010 $12.99N/A (N/A/77%)1,000,000 .. 2,000,0000%00:00 (00:00)
114 Runestone Keeper Mar 2, 2015 $9.99N/A (N/A)200,000 .. 500,0000%00:00 (00:00)
115 Total War: EMPIRE – Definitive Edition Mar 4, 2009 $24.99N/A (N/A)2,000,000 .. 5,000,0003.13%00:18 (00:06)
116 Ultimate General: Gettysburg Oct 16, 2014 $14.99N/A (N/A/84%)200,000 .. 500,0000%00:00 (00:00)
117 Invention Jan 11, 2017 $0.49N/A (N/A)100,000 .. 200,0000%00:00 (00:00)
118 Depth Nov 3, 2014 $19.99N/A (N/A/65%)1,000,000 .. 2,000,0003.23%00:03 (00:01)
119 The Disney Afternoon Collection Apr 18, 2017 $19.99N/A (N/A)20,000 .. 50,0000%00:00 (00:00)
120 The Wolf Among Us Oct 11, 2013 $14.99N/A (N/A/85%)1,000,000 .. 2,000,0000%00:00 (00:00)
121 Impact Winter May 22, 2017 $19.99N/A (N/A/63%)0 .. 20,0000%00:00 (00:00)
122 Company of Heroes 2 Jun 25, 2013 $19.99N/A (N/A/80%)2,000,000 .. 5,000,0001.91%16:14 (16:35)
123 Might and Magic: Heroes VII – Trial by Fire Aug 4, 2016 $29.99N/A (N/A)20,000 .. 50,0000%00:00 (00:00)
124 Mercenary Kings: Reloaded Edition Mar 25, 2014 $19.99N/A (N/A/76%)200,000 .. 500,0000%00:00 (00:00)
125 EARTH DEFENSE FORCE 4.1 The Shadow of New Despair Jul 18, 2016 $19.99N/A (N/A/79%)200,000 .. 500,00011.11%00:01 (00:00)
126 Worms Revolution Oct 10, 2012 $14.99N/A (N/A/73%)1,000,000 .. 2,000,0000%00:00 (00:00)
127 Planetary Annihilation: TITANS Aug 18, 2015 $39.99N/A (N/A)500,000 .. 1,000,0008.7%01:45 (01:10)
128 Assassin’s Creed Brotherhood Mar 22, 2011 $19.99N/A (N/A/88%)500,000 .. 1,000,0000%00:00 (00:00)
129 Space Run Galaxy Jun 17, 2016 $19.99N/A (N/A/75%)100,000 .. 200,0000%00:00 (00:00)
130 Worms Reloaded Aug 26, 2010 $19.99N/A (N/A/79%)500,000 .. 1,000,0000%00:00 (00:00)
131 Tharsis Jan 11, 2016 $14.99N/A (N/A/61%)200,000 .. 500,0000%00:00 (00:00)
132 Minecraft: Story Mode - Season Two Jul 11, 2017 $14.99N/A (N/A)50,000 .. 100,0000%00:00 (00:00)
133 Total War: MEDIEVAL II – Definitive Edition Nov 15, 2006 $24.99N/A (N/A)2,000,000 .. 5,000,0000%00:00 (00:00)
134 Endless Legend Sep 18, 2014 $29.99N/A (N/A/82%)1,000,000 .. 2,000,0000%00:00 (00:00)
135 ICEY Nov 17, 2016 $10.99N/A (N/A/84%)500,000 .. 1,000,0000%00:00 (00:00)
136 Age of Mythology: Extended Edition May 8, 2014 $29.99N/A (N/A/66%)1,000,000 .. 2,000,0000%00:00 (00:00)
137 Take Thy Throne Jul 5, 2016 $1.99N/A (N/A)200,000 .. 500,0000%00:00 (00:00)
138 Castlevania: Lords of Shadow 2 Feb 25, 2014 $39.99N/A (N/A/58%)200,000 .. 500,0000%00:00 (00:00)
139 Dungetris Jan 25, 2017 $0.51N/A (N/A)200,000 .. 500,0000%00:00 (00:00)
140 Super House of Dead Ninjas Feb 18, 2013 $6.99N/A (N/A/79%)100,000 .. 200,0000%00:00 (00:00)
141 Grow Up Aug 16, 2016 $9.99N/A (N/A/71%)50,000 .. 100,0000%00:00 (00:00)
142 Port Royale 3 May 4, 2012 $14.99N/A (N/A)200,000 .. 500,0000%00:00 (00:00)
143 Endless Space 2 May 18, 2017 $39.99N/A (N/A)500,000 .. 1,000,0000%00:00 (00:00)
144 Might & Magic: Clash of Heroes Sep 22, 2011 $9.99N/A (N/A/76%)200,000 .. 500,0000%00:00 (00:00)
145 Portal Knights May 18, 2017 $19.99N/A (N/A/72%)500,000 .. 1,000,0003.57%01:05 (00:21)
146 Stronghold HD Oct 19, 2001 $5.99N/A (N/A/81%)1,000,000 .. 2,000,0000%00:00 (00:00)
147 Ember Sep 9, 2016 $9.99N/A (N/A/70%)50,000 .. 100,0000%00:00 (00:00)
148 Aliens vs. Predator Feb 16, 2010 $14.99N/A (N/A/68%)1,000,000 .. 2,000,0000%00:00 (00:00)
149 Obduction Aug 24, 2016 $29.99N/A (N/A/76%)100,000 .. 200,0000%00:00 (00:00)
150 Fluffy Jan 13, 2017 $0.49N/A (N/A)50,000 .. 100,0000%00:00 (00:00)
151 Counter-Strike Nov 1, 2000 $9.99N/A (N/A/88%)10,000,000 .. 20,000,0008.18%26:05 (03:13)
152 A Story About My Uncle May 28, 2014 $12.99N/A (N/A/73%)5,000,000 .. 10,000,0000.96%04:38 (03:05)
153 Merger 3D Sep 29, 2016 $2.99N/A (N/A)200,000 .. 500,0000%00:00 (00:00)
154 Wargame: Red Dragon Apr 17, 2014 $29.99N/A (N/A/78%)500,000 .. 1,000,0006.67%00:02 (00:00)
155 Super Mega Neo Pug May 11, 2016 $0.99N/A (N/A)500,000 .. 1,000,0000%00:00 (00:00)
156 Stronghold Crusader 2 Sep 22, 2014 $39.99N/A (N/A/65%)500,000 .. 1,000,0005.88%00:21 (00:07)
157 Case #8 Feb 29, 2016 $0.51N/A (N/A)100,000 .. 200,0000%00:00 (00:00)
158 DmC: Devil May Cry Jan 24, 2013 $29.99N/A (N/A/85%)1,000,000 .. 2,000,0000%00:00 (00:00)
159 Starward Rogue Jan 22, 2016 $11.99N/A (N/A)50,000 .. 100,0000%00:00 (00:00)
160 Batman: Arkham City - Game of the Year Edition Sep 7, 2012 $19.99N/A (N/A/91%)2,000,000 .. 5,000,0000%00:00 (00:00)
161 Crossout Jul 26, 2017 FreeN/A (N/A)2,000,000 .. 5,000,0004.9%06:44 (05:54)
162 Might & Magic: Heroes VI Oct 13, 2011 $19.99N/A (N/A/77%)500,000 .. 1,000,0000%00:00 (00:00)
163 Curious Expedition Sep 2, 2016 $14.99N/A (N/A)100,000 .. 200,0000%00:00 (00:00)
164 Command & Conquer 3: Tiberium Wars Mar 28, 2007 $14.99N/A (N/A/85%)500,000 .. 1,000,0000%00:00 (00:00)
165 Total War: ATTILA Feb 17, 2015 $44.99N/A (N/A/80%)1,000,000 .. 2,000,0000%00:00 (00:00)
166 Rome: Total War - Collection Sep 22, 2004 $9.99N/A (N/A/92%)1,000,000 .. 2,000,0004.55%02:12 (00:44)
167 LARA CROFT AND THE TEMPLE OF OSIRIS Dec 8, 2014 $19.99N/A (N/A/73%)200,000 .. 500,0000%00:00 (00:00)
168 Steel Invaders Nov 23, 2016 $0.49N/A (N/A)200,000 .. 500,0000%00:00 (00:00)
169 Panzer Corps Jul 10, 2011 $19.99N/A (N/A/80%)100,000 .. 200,0000%00:00 (00:00)
170 Has-Been Heroes Mar 28, 2017 $19.99N/A (N/A/63%)20,000 .. 50,0000%00:00 (00:00)
171 Goodbye Deponia Oct 17, 2013 $19.99N/A (N/A/80%)200,000 .. 500,0000%00:00 (00:00)
172 Darksiders Warmastered Edition Nov 29, 2016 $19.99N/A (N/A)1,000,000 .. 2,000,0001.79%01:53 (00:37)
173 Brothers - A Tale of Two Sons Sep 3, 2013 $14.99N/A (N/A/90%)1,000,000 .. 2,000,0000%00:00 (00:00)
174 8-Bit Armies Apr 22, 2016 $14.99N/A (N/A/69%)100,000 .. 200,0000%00:00 (00:00)
175 Endless Space - Collection Jul 4, 2012 $19.99N/A (N/A/77%)1,000,000 .. 2,000,0002.08%05:49 (01:56)
176 Hearts of Iron IV Jun 6, 2016 $39.99N/A (N/A/83%)1,000,000 .. 2,000,00017.5%22:34 (43:49)
177 Men of War: Assault Squad Feb 24, 2011 $9.99N/A (N/A/77%)500,000 .. 1,000,0000%00:00 (00:00)
178 Anno 2205 Nov 3, 2015 $39.99N/A (N/A/72%)200,000 .. 500,00016.67%00:03 (00:01)
179 Stronghold 2: Steam Edition $14.99N/A (N/A)0 .. 20,0000%00:00 (00:00)
180 Sinless + OST Dec 16, 2015 $4.99N/A (N/A)50,000 .. 100,0000%00:00 (00:00)
181 Assassin's Creed: Director's Cut Edition Apr 9, 2008 $19.99N/A (N/A/79%)500,000 .. 1,000,0000%00:00 (00:00)
182 Grand Ages: Medieval Sep 25, 2015 $19.99N/A (N/A/63%)50,000 .. 100,0000%00:00 (00:00)
183 Marvel's Guardians of the Galaxy: The Telltale Series Apr 18, 2017 $14.99N/A (N/A/78%)100,000 .. 200,0000%00:00 (00:00)
184 Counter-Strike: Source Nov 1, 2004 $9.99N/A (N/A/88%)10,000,000 .. 20,000,0003.38%03:46 (04:08)
185 Splatter - Zombie Apocalypse Jun 4, 2014 $0.99N/A (N/A)200,000 .. 500,0000%00:00 (00:00)
186 Operation: New Earth Dec 14, 2016 N/AN/A (N/A)50,000 .. 100,0000%00:00 (00:00)
187 Death Road to Canada Jul 21, 2016 $14.99N/A (N/A)200,000 .. 500,0000%00:00 (00:00)
188 Event[0] Sep 14, 2016 $19.99N/A (N/A/75%)100,000 .. 200,0000%00:00 (00:00)
189 Shadow Warrior Sep 26, 2013 $39.99N/A (N/A/73%)2,000,000 .. 5,000,0000%00:00 (00:00)
190 Planar Conquest May 30, 2016 $19.99N/A (N/A/53%)20,000 .. 50,0000%00:00 (00:00)
191 Chaos on Deponia Nov 6, 2012 $19.99N/A (N/A/78%)200,000 .. 500,0000%00:00 (00:00)
192 Forts Apr 19, 2017 $14.99N/A (N/A/74%)200,000 .. 500,0000%00:00 (00:00)
193 Assassin's Creed Revelations Nov 29, 2011 $19.99N/A (N/A/80%)500,000 .. 1,000,0000%00:00 (00:00)
194 SMITE Sep 8, 2015 FreeN/A (N/A/83%)5,000,000 .. 10,000,0000.56%09:50 (03:16)
195 Anno 2070 Nov 17, 2011 $19.99N/A (N/A/83%)500,000 .. 1,000,0007.14%01:32 (00:30)
196 ROMANCE OF THE THREE KINGDOMS XIII / 三國志13 Jan 27, 2016 $59.99N/A (N/A)200,000 .. 500,0000%00:00 (00:00)
197 Command & Conquer 3: Kane's Wrath Nov 13, 2009 $19.99N/A (N/A/77%)200,000 .. 500,0000%00:00 (00:00)
198 Worms W.M.D Aug 23, 2016 $29.99N/A (N/A/79%)200,000 .. 500,0000%00:00 (00:00)
199 Sid Meier's Railroads! Oct 16, 2006 $9.99N/A (N/A/77%)500,000 .. 1,000,0000%00:00 (00:00)
200 Call of Duty: Infinite Warfare Nov 3, 2016 $59.99N/A (N/A/73%)500,000 .. 1,000,0000%00:00 (00:00)
201 Soda Dungeon Feb 6, 2017 FreeN/A (N/A)500,000 .. 1,000,0000%00:00 (00:00)
202 XCOM 2 Feb 4, 2016 $59.99N/A (N/A/88%)1,000,000 .. 2,000,0000%00:00 (00:00)
203 RiME May 26, 2017 $29.99N/A (N/A/78%)200,000 .. 500,00020%02:49 (01:24)
204 Middle-earth: Shadow of Mordor Sep 30, 2014 $19.99N/A (N/A/84%)2,000,000 .. 5,000,0001.09%02:52 (00:57)
205 Farnham Fables Jun 20, 2016 $0.99N/A (N/A)100,000 .. 200,0000%00:00 (00:00)
206 Brutal Legend Feb 26, 2013 $14.99N/A (N/A/80%)2,000,000 .. 5,000,0001.35%02:36 (00:52)
207 The Walking Dead: Michonne - A Telltale Miniseries Feb 23, 2016 N/AN/A (N/A)200,000 .. 500,0000%00:00 (00:00)
208 Assassin’s Creed III Nov 20, 2012 N/AN/A (N/A/80%)1,000,000 .. 2,000,0000%00:00 (00:00)
209 Dead Effect 2 May 6, 2016 $11.99N/A (N/A/53%)100,000 .. 200,0000%00:00 (00:00)
210 The Bureau: XCOM Declassified Aug 19, 2013 $19.99N/A (N/A/66%)2,000,000 .. 5,000,0000%00:00 (00:00)
211 Putrefaction Aug 7, 2015 $0.99N/A (N/A)100,000 .. 200,0000%00:00 (00:00)
212 Stronghold Crusader HD Jul 31, 2002 $9.99N/A (N/A/78%)1,000,000 .. 2,000,0004.17%42:42 (14:14)
213 Agent Awesome Feb 17, 2015 $0.99N/A (N/A)200,000 .. 500,0000%00:00 (00:00)
214 Tom Clancy's Rainbow Six Vegas 2 Apr 16, 2008 $9.99N/A (N/A/78%)500,000 .. 1,000,0000%00:00 (00:00)
215 LEGO Pirates of the Caribbean: The Video Game May 24, 2011 $19.99N/A (N/A)50,000 .. 100,0000%00:00 (00:00)
216 Yonder: The Cloud Catcher Chronicles Jul 18, 2017 $24.99N/A (N/A/70%)100,000 .. 200,0000%00:00 (00:00)
217 Earth 2160 Apr 1, 2006 $4.99N/A (N/A/73%)1,000,000 .. 2,000,0002.33%07:13 (02:24)
218 Sid Meier's Starships Mar 12, 2015 $14.99N/A (N/A/64%)200,000 .. 500,0000%00:00 (00:00)
219 TAIKU MANSION Feb 13, 2017 $0.99N/A (N/A)100,000 .. 200,0000%00:00 (00:00)
220 Abyss Odyssey Jul 15, 2014 $14.99N/A (N/A/69%)200,000 .. 500,0000%00:00 (00:00)
221 Killbot Jul 10, 2016 $0.99N/A (N/A)100,000 .. 200,0000%00:00 (00:00)
222 Worms Clan Wars Aug 15, 2013 $24.99N/A (N/A/73%)500,000 .. 1,000,0000%00:00 (00:00)
223 ! That Bastard Is Trying To Steal Our Gold ! Mar 1, 2016 $3.99N/A (N/A)100,000 .. 200,0000%00:00 (00:00)
224 Resident Evil 6 / Biohazard 6 Mar 22, 2013 $29.99N/A (N/A/69%)1,000,000 .. 2,000,0000%00:00 (00:00)
225 Midsummer Night Jun 17, 2016 $0.51N/A (N/A)50,000 .. 100,0000%00:00 (00:00)
226 Galactic Civilizations II: Ultimate Edition Dec 2, 2011 $19.99N/A (N/A/92%)500,000 .. 1,000,0000%00:00 (00:00)
227 Spakoyno: Back to the USSR 2.0 Feb 15, 2016 $0.51N/A (N/A)200,000 .. 500,0000%00:00 (00:00)
228 Mafia II Mar 22, 2011 $7.49N/A (N/A/77%)2,000,000 .. 5,000,0002.22%00:29 (00:09)
229 Goliath May 12, 2016 $11.99N/A (N/A/57%)20,000 .. 50,0000%00:00 (00:00)
230 STAR WARS - The Force Unleashed Ultimate Sith Edition Nov 3, 2009 $19.99N/A (N/A/65%)1,000,000 .. 2,000,0000%00:00 (00:00)
231 Anna's Quest Jul 2, 2015 $19.99N/A (N/A/74%)100,000 .. 200,0000%00:00 (00:00)
232 Civilization IV: Beyond the Sword Jul 24, 2007 $9.99N/A (N/A/86%)1,000,000 .. 2,000,0000%00:00 (00:00)
233 Deponia: The Complete Journey Jul 8, 2014 $4.49N/A (N/A)500,000 .. 1,000,0001.72%05:07 (01:42)
234 ZombieCarz Dec 7, 2016 $0.51N/A (N/A)100,000 .. 200,0000%00:00 (00:00)
235 RUNNING WITH RIFLES Apr 2, 2015 $14.99N/A (N/A/78%)200,000 .. 500,0006.25%01:08 (00:22)
236 Kingdom: New Lands Aug 9, 2016 $14.99N/A (N/A)500,000 .. 1,000,0000%00:00 (00:00)
237 Memoria Aug 29, 2013 $19.99N/A (N/A/79%)200,000 .. 500,0000%00:00 (00:00)
238 Hiiro Jul 12, 2016 $2.99N/A (N/A)200,000 .. 500,0009.09%01:36 (00:32)
239 Full Mojo Rampage May 8, 2014 $12.99N/A (N/A)200,000 .. 500,0000%00:00 (00:00)
240 Duke Nukem 3D: 20th Anniversary World Tour Oct 11, 2016 $19.99N/A (N/A/72%)50,000 .. 100,0000%00:00 (00:00)
241 Batman: Arkham Origins Oct 24, 2013 $19.99N/A (N/A/74%)2,000,000 .. 5,000,0000%00:00 (00:00)
242 Ben and Ed Dec 8, 2015 $9.99N/A (N/A)100,000 .. 200,00025%00:10 (00:05)
243 Sid Meier's Civilization: Beyond Earth Oct 23, 2014 $39.99N/A (N/A/81%)1,000,000 .. 2,000,0000%00:00 (00:00)
244 The Surge May 15, 2017 $29.99N/A (N/A/72%)200,000 .. 500,0000%00:00 (00:00)
245 Stronghold Legends: Steam Edition Oct 27, 2009 $14.99N/A (N/A)500,000 .. 1,000,0000%00:00 (00:00)
246 Hero of the Kingdom II Feb 20, 2015 $7.99N/A (N/A)50,000 .. 100,0000%00:00 (00:00)
247 Heroes of Might & Magic V: Tribes of the East Oct 16, 2007 $9.99N/A (N/A/70%)200,000 .. 500,0000%00:00 (00:00)
248 Rampage Knights Sep 4, 2015 $11.99N/A (N/A/80%)200,000 .. 500,0000%00:00 (00:00)
249 Steampunk Syndicate Apr 13, 2017 $1.99N/A (N/A)50,000 .. 100,0000%00:00 (00:00)
250 Call of Duty 2 Oct 25, 2005 $19.99N/A (N/A/86%)200,000 .. 500,00012.5%00:40 (00:13)
251 Enigmatis: The Ghosts of Maple Creek Sep 1, 2011 $9.99N/A (N/A)50,000 .. 100,0000%00:00 (00:00)
252 Rusty Lake: Roots Oct 20, 2016 $2.99N/A (N/A/75%)100,000 .. 200,0000%00:00 (00:00)
253 Enemy Front Jun 10, 2014 $19.99N/A (N/A/52%)200,000 .. 500,0000%00:00 (00:00)
254 Quantum Break Sep 29, 2016 $39.99N/A (N/A/66%)1,000,000 .. 2,000,0000%00:00 (00:00)
255 Castlevania: Lords of Shadow – Ultimate Edition Aug 27, 2013 $29.99N/A (N/A)200,000 .. 500,0000%00:00 (00:00)
256 Madness Cubed May 12, 2016 $1.99N/A (N/A)50,000 .. 100,0000%00:00 (00:00)
257 Age of Empires II HD Apr 9, 2013 $19.99N/A (N/A/68%)5,000,000 .. 10,000,0005.8%03:12 (03:38)
258 Princess.Loot.Pixel.Again Apr 15, 2016 $0.51N/A (N/A)500,000 .. 1,000,0000%00:00 (00:00)
259 Call of Duty: Black Ops II Nov 12, 2012 $59.99N/A (N/A/74%)2,000,000 .. 5,000,0002.13%00:01 (00:00)
260 Day of the Tentacle Remastered Mar 21, 2016 $14.99N/A (N/A/86%)200,000 .. 500,0000%00:00 (00:00)
261 Darksiders Sep 23, 2010 $19.99N/A (N/A/83%)2,000,000 .. 5,000,0000%00:00 (00:00)
262 Total War: WARHAMMER May 24, 2016 $59.99N/A (N/A/86%)1,000,000 .. 2,000,0000%00:00 (00:00)
263 Assassin's Creed 2 Deluxe Edition Mar 9, 2010 $19.99N/A (N/A/86%)1,000,000 .. 2,000,0000%00:00 (00:00)
264 Devil May Cry 4 Special Edition Jun 23, 2015 $24.99N/A (N/A)500,000 .. 1,000,0000%00:00 (00:00)
265 Supreme Commander: Forged Alliance Sep 28, 2011 $12.99N/A (N/A/81%)1,000,000 .. 2,000,00010.53%08:49 (05:52)
266 Renowned Explorers: International Society Sep 2, 2015 $19.99N/A (N/A)200,000 .. 500,0000%00:00 (00:00)
267 Kingdoms and Castles Jul 20, 2017 $9.99N/A (N/A)500,000 .. 1,000,0000%00:00 (00:00)
268 Worms World Party Remastered Jul 16, 2015 $14.99N/A (N/A)50,000 .. 100,0000%00:00 (00:00)
269 911 Operator Feb 24, 2017 $14.99N/A (N/A/68%)200,000 .. 500,0000%00:00 (00:00)
270 Men of War: Assault Squad 2 May 15, 2014 $29.99N/A (N/A/68%)500,000 .. 1,000,00021.43%04:03 (03:57)
271 Crime Secrets: Crimson Lily Jul 14, 2016 $9.99N/A (N/A)20,000 .. 50,0000%00:00 (00:00)
272 LOST PLANET 3 Aug 26, 2013 $24.99N/A (N/A)200,000 .. 500,0000%00:00 (00:00)
273 Masked Shooters 2 Jan 14, 2016 $0.99N/A (N/A)200,000 .. 500,0000%00:00 (00:00)
274 Sonic Adventure 2 Nov 19, 2012 $9.99N/A (N/A)500,000 .. 1,000,0007.69%00:10 (00:03)
275 Lords of the Realm II Oct 31, 1996 $2.99N/A (N/A/77%)20,000 .. 50,0000%00:00 (00:00)
276 Age of Empires III: Complete Collection Sep 15, 2009 $39.99N/A (N/A/81%)2,000,000 .. 5,000,0004.44%01:48 (01:09)
277 80 Days Sep 28, 2015 $12.99N/A (N/A/84%)100,000 .. 200,0000%00:00 (00:00)
278 Call of Duty: Black Ops Nov 9, 2010 $39.99N/A (N/A/81%)2,000,000 .. 5,000,0005.41%06:51 (04:22)
279 Wolfenstein: The Old Blood May 4, 2015 $19.99N/A (N/A/76%)500,000 .. 1,000,0000%00:00 (00:00)
280 Warhammer 40,000: Dawn of War II Feb 18, 2009 $19.99N/A (N/A/85%)2,000,000 .. 5,000,0004.35%02:10 (00:43)
281 Grim Fandango Remastered Jan 26, 2015 $14.99N/A (N/A/84%)500,000 .. 1,000,0000%00:00 (00:00)
282 Moccasin Feb 21, 2017 $0.49N/A (N/A)100,000 .. 200,0000%00:00 (00:00)

Geography of active players over time, share:

Access restricted.

This feature is only available to users with special access rights. Sorry.

If you want to proceed, you need to register or log in first and then back Steam Spy on Patreon. Look for Indie or Pro pledge.

Don't forget to use the same email as on Steam Spy!

Tags over time:

Access restricted.

This feature is only available to users with special access rights. Sorry.

If you want to proceed, you need to register or log in first and then back Steam Spy on Patreon. Look for Indie or Pro pledge.

Don't forget to use the same email as on Steam Spy!

Owners of this game also own:

Access restricted.

This feature is only available to users with special access rights. Sorry.

If you want to proceed, you need to register or log in first and then back Steam Spy on Patreon. Look for Indie or Pro pledge.

Don't forget to use the same email as on Steam Spy!

Playtime distribution:

Access restricted.

This feature is only available to users with special access rights. Sorry.

If you want to proceed, you need to register or log in first and then back Steam Spy on Patreon. Look for Indie or Pro pledge.

Don't forget to use the same email as on Steam Spy!

Playtime (2 weeks):

Access restricted.

This feature is only available to users with special access rights. Sorry.

If you want to proceed, you need to register or log in first and then back Steam Spy on Patreon. Look for Indie or Pro pledge.

Don't forget to use the same email as on Steam Spy!

User reviews:

Login required.

Please register or log in to see this information.